Time;durP1;ratioP1;P1;durP2;ratioP2;P2;SDS_P1;SDS_P2;PMS_P1;PMS_P2;Temp;Humidity;BMP_temperature;BMP_pressure;BME280_temperature;BME280_humidity;BME280_pressure;Samples;Min_cycle;Max_cycle;Signal;HPM_P1;HPM_P2
2022/09/04 00:01:53;;;;;;;4.32;3.13;;;;;;;;;;5083544;28;20282;-69
2022/09/04 00:04:24;;;;;;;3.10;2.90;;;;;;;;;;5083404;28;20209;-69
2022/09/04 00:06:54;;;;;;;2.83;2.63;;;;;;;;;;5083407;28;20242;-69
2022/09/04 00:09:25;;;;;;;2.95;2.70;;;;;;;;;;5082656;28;20293;-69
2022/09/04 00:11:54;;;;;;;4.00;2.58;;;;;;;;;;5083143;28;20516;-69
2022/09/04 00:14:21;;;;;;;4.60;2.83;;;;;;;;;;5083401;28;20422;-69
2022/09/04 00:16:53;;;;;;;6.35;2.47;;;;;;;;;;5083169;28;20196;-69
2022/09/04 00:19:24;;;;;;;2.90;2.20;;;;;;;;;;5083097;28;20496;-69
2022/09/04 00:21:53;;;;;;;2.80;2.45;;;;;;;;;;5082965;28;20242;-69
2022/09/04 00:24:21;;;;;;;3.95;2.63;;;;;;;;;;5082929;28;20203;-69
2022/09/04 00:26:53;;;;;;;5.22;2.88;;;;;;;;;;5083033;28;20204;-69
2022/09/04 00:29:22;;;;;;;4.15;2.80;;;;;;;;;;5082789;28;20215;-69
2022/09/04 00:31:51;;;;;;;3.05;2.72;;;;;;;;;;5082799;28;20234;-69
2022/09/04 00:34:23;;;;;;;4.97;3.17;;;;;;;;;;5082747;28;20204;-69
2022/09/04 00:36:52;;;;;;;4.55;3.00;;;;;;;;;;5083041;28;20573;-69
2022/09/04 00:39:20;;;;;;;3.47;2.83;;;;;;;;;;5082665;28;20386;-69
2022/09/04 00:41:55;;;;;;;2.90;2.80;;;;;;;;;;5082739;28;20215;-69
2022/09/04 00:44:32;;;;;;;3.40;2.78;;;;;;;;;;5082761;28;20196;-69
2022/09/04 00:47:06;;;;;;;3.22;2.90;;;;;;;;;;5082414;28;20196;-69
2022/09/04 00:49:41;;;;;;;3.58;3.28;;;;;;;;;;5082477;28;20228;-69
2022/09/04 00:52:11;;;;;;;7.55;3.97;;;;;;;;;;5082594;28;20196;-69
2022/09/04 00:54:47;;;;;;;3.42;3.13;;;;;;;;;;5082440;28;20192;-69
2022/09/04 00:57:28;;;;;;;3.28;2.97;;;;;;;;;;5082517;28;20208;-69
2022/09/04 01:00:04;;;;;;;3.33;3.00;;;;;;;;;;5082490;28;20192;-69
2022/09/04 01:02:39;;;;;;;5.32;3.22;;;;;;;;;;5082355;28;20214;-69
2022/09/04 01:05:08;;;;;;;3.17;2.80;;;;;;;;;;5082424;28;20224;-69
2022/09/04 01:07:47;;;;;;;4.50;2.90;;;;;;;;;;5082349;28;20197;-69
2022/09/04 01:10:21;;;;;;;3.63;3.33;;;;;;;;;;5082303;28;20220;-69
2022/09/04 01:12:49;;;;;;;6.30;2.88;;;;;;;;;;5082473;28;20427;-69
2022/09/04 01:15:18;;;;;;;7.88;3.97;;;;;;;;;;5082207;28;20241;-69
2022/09/04 01:17:51;;;;;;;3.75;3.40;;;;;;;;;;5082267;28;20199;-69
2022/09/04 01:20:21;;;;;;;2.90;2.65;;;;;;;;;;5082109;28;20246;-69
2022/09/04 01:23:19;;;;;;;4.20;3.80;;;;;;;;;;5082101;28;20234;-69
2022/09/04 01:28:58;;;;;;;3.38;3.10;;;;;;;;;;5081335;28;20386;-69
2022/09/04 01:31:30;;;;;;;3.72;3.33;;;;;;;;;;5082058;28;20196;-69
2022/09/04 01:34:02;;;;;;;4.30;3.83;;;;;;;;;;5082359;28;20208;-69
2022/09/04 01:36:32;;;;;;;4.03;3.65;;;;;;;;;;5082167;28;20550;-69
2022/09/04 01:38:59;;;;;;;5.90;3.30;;;;;;;;;;5081840;28;20192;-69
2022/09/04 01:41:27;;;;;;;3.80;3.47;;;;;;;;;;5081902;28;20208;-69
2022/09/04 01:43:55;;;;;;;8.30;3.90;;;;;;;;;;5081946;28;20196;-69
2022/09/04 01:46:30;;;;;;;3.63;3.33;;;;;;;;;;5082027;28;20436;-69
2022/09/04 01:49:01;;;;;;;5.55;3.70;;;;;;;;;;5081545;28;20223;-69
2022/09/04 01:51:32;;;;;;;3.90;3.60;;;;;;;;;;5081948;28;20507;-69
2022/09/04 01:54:07;;;;;;;5.30;3.90;;;;;;;;;;5081927;28;20208;-69
2022/09/04 01:56:38;;;;;;;4.07;3.80;;;;;;;;;;5082024;28;20188;-69
2022/09/04 01:59:11;;;;;;;6.68;4.10;;;;;;;;;;5081812;28;20207;-69
2022/09/04 02:01:41;;;;;;;4.13;3.80;;;;;;;;;;5081985;28;20285;-69
2022/09/04 02:04:11;;;;;;;6.65;3.88;;;;;;;;;;5081682;28;20196;-69
2022/09/04 02:06:41;;;;;;;6.13;4.40;;;;;;;;;;5081800;28;20251;-69
2022/09/04 02:09:16;;;;;;;4.30;4.10;;;;;;;;;;5081238;28;20246;-69
2022/09/04 02:11:47;;;;;;;5.55;4.43;;;;;;;;;;5081847;28;20395;-69
2022/09/04 02:14:22;;;;;;;4.40;4.20;;;;;;;;;;5081773;28;20196;-69
2022/09/04 02:16:55;;;;;;;4.47;4.18;;;;;;;;;;5081633;28;20200;-69
2022/09/04 02:19:31;;;;;;;4.93;4.63;;;;;;;;;;5081572;28;20193;-69
2022/09/04 02:22:01;;;;;;;7.22;5.45;;;;;;;;;;5081851;28;20499;-69
2022/09/04 02:24:30;;;;;;;6.03;5.28;;;;;;;;;;5081717;28;20197;-69
2022/09/04 02:27:00;;;;;;;8.30;5.45;;;;;;;;;;5081527;28;20239;-69
2022/09/04 02:29:32;;;;;;;6.15;5.47;;;;;;;;;;5081718;28;20221;-69
2022/09/04 02:32:01;;;;;;;5.90;5.50;;;;;;;;;;5081728;28;20197;-69
2022/09/04 02:34:37;;;;;;;10.50;5.93;;;;;;;;;;5084133;28;20230;-69
2022/09/04 02:37:05;;;;;;;8.82;5.78;;;;;;;;;;5085051;28;20196;-69
2022/09/04 02:39:41;;;;;;;7.85;6.22;;;;;;;;;;5084797;28;20538;-69
2022/09/04 02:42:12;;;;;;;6.63;6.05;;;;;;;;;;5084993;28;20200;-69
2022/09/04 02:44:44;;;;;;;9.52;6.25;;;;;;;;;;5085168;28;20196;-69
2022/09/04 02:47:13;;;;;;;7.05;6.45;;;;;;;;;;5084899;28;20504;-69
2022/09/04 02:49:47;;;;;;;9.20;6.45;;;;;;;;;;5084647;28;20254;-69
2022/09/04 02:52:18;;;;;;;7.55;6.00;;;;;;;;;;5084868;28;20203;-69
2022/09/04 02:54:56;;;;;;;11.48;5.95;;;;;;;;;;5085082;28;20203;-69
2022/09/04 02:57:28;;;;;;;5.88;5.47;;;;;;;;;;5085150;28;20204;-69
2022/09/04 03:00:03;;;;;;;10.15;6.32;;;;;;;;;;5084661;28;20196;-69
2022/09/04 03:02:32;;;;;;;6.30;5.78;;;;;;;;;;5084729;28;20196;-69
2022/09/04 03:05:01;;;;;;;11.82;6.63;;;;;;;;;;5084762;28;20478;-69
2022/09/04 03:07:30;;;;;;;7.95;5.25;;;;;;;;;;5084681;28;20196;-69
2022/09/04 03:10:00;;;;;;;10.40;5.72;;;;;;;;;;5084457;28;20220;-69
2022/09/04 03:12:30;;;;;;;10.27;5.55;;;;;;;;;;5084626;28;20505;-69
2022/09/04 03:15:01;;;;;;;5.97;4.90;;;;;;;;;;5084946;28;20243;-69
2022/09/04 03:17:31;;;;;;;10.85;5.13;;;;;;;;;;5084740;28;20492;-69
2022/09/04 03:20:00;;;;;;;5.00;4.55;;;;;;;;;;5084056;28;20200;-69
2022/09/04 03:22:30;;;;;;;10.55;5.90;;;;;;;;;;5084298;28;20393;-69
2022/09/04 03:25:02;;;;;;;11.63;5.05;;;;;;;;;;5084177;28;20551;-69
2022/09/04 03:27:30;;;;;;;26.55;5.50;;;;;;;;;;5084146;28;20200;-69
2022/09/04 03:30:02;;;;;;;5.75;5.25;;;;;;;;;;5084140;28;20231;-69
2022/09/04 03:32:34;;;;;;;5.47;5.13;;;;;;;;;;5084269;28;20397;-69
2022/09/04 03:35:03;;;;;;;7.70;4.68;;;;;;;;;;5084205;28;20196;-69
2022/09/04 03:37:39;;;;;;;4.75;4.45;;;;;;;;;;5084396;28;20247;-69
2022/09/04 03:40:13;;;;;;;5.40;4.55;;;;;;;;;;5083732;28;20214;-69
2022/09/04 03:42:48;;;;;;;4.85;4.45;;;;;;;;;;5083949;28;20203;-69
2022/09/04 03:45:18;;;;;;;4.45;4.15;;;;;;;;;;5084020;28;20218;-69
2022/09/04 03:47:50;;;;;;;8.45;4.50;;;;;;;;;;5084237;28;20239;-69
2022/09/04 03:50:23;;;;;;;9.07;4.47;;;;;;;;;;5083506;28;20217;-69
2022/09/04 03:52:56;;;;;;;5.07;4.63;;;;;;;;;;5083945;28;20200;-69
2022/09/04 03:55:28;;;;;;;5.82;5.32;;;;;;;;;;5083847;28;20234;-69
2022/09/04 03:57:59;;;;;;;7.43;5.05;;;;;;;;;;5083768;28;20196;-69
2022/09/04 04:00:26;;;;;;;8.32;4.80;;;;;;;;;;5083334;28;20192;-69
2022/09/04 04:03:13;;;;;;;4.82;4.63;;;;;;;;;;5083329;28;20196;-69
2022/09/04 04:05:51;;;;;;;5.03;4.45;;;;;;;;;;5083844;28;20254;-69
2022/09/04 04:08:33;;;;;;;4.43;4.22;;;;;;;;;;5083450;28;20246;-69
2022/09/04 04:11:05;;;;;;;4.75;4.30;;;;;;;;;;5083184;28;20361;-69
2022/09/04 04:13:45;;;;;;;5.28;3.97;;;;;;;;;;5083290;28;20242;-69
2022/09/04 04:16:18;;;;;;;4.32;4.07;;;;;;;;;;5083487;28;20325;-69
2022/09/04 04:19:05;;;;;;;4.45;3.55;;;;;;;;;;5083203;28;20504;-69
2022/09/04 04:21:38;;;;;;;3.63;3.15;;;;;;;;;;5083097;28;20687;-68
2022/09/04 04:24:13;;;;;;;3.47;3.25;;;;;;;;;;5083169;28;20196;-67
2022/09/04 04:26:46;;;;;;;3.05;2.80;;;;;;;;;;5070435;28;20226;-67
2022/09/04 04:29:18;;;;;;;2.83;2.72;;;;;;;;;;5071365;28;20209;-67
2022/09/04 04:32:09;;;;;;;3.03;2.92;;;;;;;;;;5077384;28;20250;-67
2022/09/04 04:34:39;;;;;;;2.88;2.67;;;;;;;;;;5077279;28;20212;-67
2022/09/04 04:37:10;;;;;;;3.20;3.10;;;;;;;;;;5076872;28;20212;-67
2022/09/04 04:39:38;;;;;;;3.17;2.97;;;;;;;;;;5076658;28;20209;-67
2022/09/04 04:42:09;;;;;;;3.40;2.97;;;;;;;;;;5076997;28;20520;-67
2022/09/04 04:47:47;;;;;;;12.02;6.55;;;;;;;;;;5073994;28;20583;-69
2022/09/04 04:50:18;;;;;;;4.05;3.70;;;;;;;;;;5076746;28;20255;-68
2022/09/04 04:52:48;;;;;;;3.78;3.40;;;;;;;;;;5076910;28;20407;-69
2022/09/04 04:55:20;;;;;;;3.70;3.50;;;;;;;;;;5076564;28;20587;-68
2022/09/04 04:57:52;;;;;;;3.15;3.03;;;;;;;;;;5076583;28;20200;-68
2022/09/04 05:00:20;;;;;;;5.32;3.15;;;;;;;;;;5076792;28;20281;-68
2022/09/04 05:02:52;;;;;;;3.30;3.10;;;;;;;;;;5076725;28;20250;-68
2022/09/04 05:05:25;;;;;;;6.30;3.63;;;;;;;;;;5076513;28;20228;-68
2022/09/04 05:07:59;;;;;;;3.80;3.60;;;;;;;;;;5076753;28;20535;-68
2022/09/04 05:10:30;;;;;;;5.68;4.15;;;;;;;;;;5075731;28;20543;-68
2022/09/04 05:13:05;;;;;;;7.80;3.75;;;;;;;;;;5076592;28;20214;-68
2022/09/04 05:15:34;;;;;;;8.07;4.63;;;;;;;;;;5075845;28;20407;-68
2022/09/04 05:18:04;;;;;;;4.55;4.00;;;;;;;;;;5076002;28;20574;-68
2022/09/04 05:20:37;;;;;;;11.57;4.50;;;;;;;;;;5075935;28;20227;-69
2022/09/04 05:23:09;;;;;;;4.72;4.40;;;;;;;;;;5076174;28;20253;-68
2022/09/04 05:25:38;;;;;;;4.10;3.60;;;;;;;;;;5075930;28;20562;-68
2022/09/04 05:28:10;;;;;;;5.55;4.30;;;;;;;;;;5076352;28;20205;-68
2022/09/04 05:30:42;;;;;;;21.00;8.13;;;;;;;;;;5076069;28;20609;-68
2022/09/04 05:33:11;;;;;;;6.68;6.15;;;;;;;;;;5076364;28;20250;-68
2022/09/04 05:35:45;;;;;;;17.08;6.07;;;;;;;;;;5076126;28;20523;-69
2022/09/04 05:38:14;;;;;;;5.20;4.90;;;;;;;;;;5076218;28;20434;-69
2022/09/04 05:40:51;;;;;;;5.82;5.32;;;;;;;;;;5076037;28;20200;-69
2022/09/04 05:43:22;;;;;;;11.00;8.63;;;;;;;;;;5076408;28;20274;-69
2022/09/04 05:45:53;;;;;;;31.27;6.45;;;;;;;;;;5076937;28;20569;-68
2022/09/04 05:48:22;;;;;;;10.82;6.40;;;;;;;;;;5082224;28;20204;-68
2022/09/04 05:51:04;;;;;;;8.20;5.75;;;;;;;;;;5081356;28;20568;-68
2022/09/04 05:53:45;;;;;;;23.90;5.07;;;;;;;;;;5082199;28;20192;-68
2022/09/04 05:56:29;;;;;;;4.55;4.18;;;;;;;;;;5068878;28;20196;-68
2022/09/04 05:59:06;;;;;;;6.82;5.40;;;;;;;;;;5081516;28;20258;-68
2022/09/04 06:01:41;;;;;;;5.50;5.20;;;;;;;;;;5081149;28;20230;-69
2022/09/04 06:04:16;;;;;;;5.22;4.70;;;;;;;;;;5082061;28;20195;-68
2022/09/04 06:06:47;;;;;;;4.57;4.28;;;;;;;;;;5081793;28;20261;-68
2022/09/04 06:09:28;;;;;;;10.55;4.78;;;;;;;;;;5083969;28;20242;-68
2022/09/04 06:12:04;;;;;;;4.38;4.18;;;;;;;;;;5083179;28;20203;-69
2022/09/04 06:14:53;;;;;;;8.65;4.07;;;;;;;;;;5085769;28;20196;-68
2022/09/04 06:17:25;;;;;;;8.00;5.00;;;;;;;;;;5085339;28;20196;-68
2022/09/04 06:20:00;;;;;;;5.53;5.00;;;;;;;;;;5085282;28;20197;-68
2022/09/04 06:22:39;;;;;;;5.38;5.07;;;;;;;;;;5085209;28;20218;-69
2022/09/04 06:25:12;;;;;;;6.20;4.95;;;;;;;;;;5085244;28;20250;-68
2022/09/04 06:27:48;;;;;;;5.70;5.30;;;;;;;;;;5085582;28;20204;-68
2022/09/04 06:30:16;;;;;;;4.88;4.57;;;;;;;;;;5084936;28;20247;-68
2022/09/04 06:33:01;;;;;;;5.05;4.72;;;;;;;;;;5085231;28;20263;-68
2022/09/04 06:35:45;;;;;;;5.88;4.70;;;;;;;;;;5085342;28;20200;-69
2022/09/04 06:38:30;;;;;;;4.30;4.05;;;;;;;;;;5084916;28;20202;-68
2022/09/04 06:41:01;;;;;;;4.68;4.30;;;;;;;;;;5084931;28;20200;-68
2022/09/04 06:43:33;;;;;;;3.80;3.60;;;;;;;;;;5084901;28;20204;-68
2022/09/04 06:46:06;;;;;;;3.67;3.47;;;;;;;;;;5084967;28;20196;-68
2022/09/04 06:48:42;;;;;;;3.53;3.33;;;;;;;;;;5084967;28;20204;-68
2022/09/04 06:51:15;;;;;;;5.55;3.35;;;;;;;;;;5085043;28;20257;-68
2022/09/04 06:53:48;;;;;;;3.40;3.20;;;;;;;;;;5084561;28;20203;-68
2022/09/04 06:56:35;;;;;;;4.45;4.10;;;;;;;;;;5085015;28;20196;-68
2022/09/04 06:59:15;;;;;;;5.68;5.28;;;;;;;;;;5084812;28;20200;-68
2022/09/04 07:01:48;;;;;;;5.07;4.68;;;;;;;;;;5084943;28;20231;-68
2022/09/04 07:04:20;;;;;;;3.17;3.08;;;;;;;;;;5084558;28;20234;-68
2022/09/04 07:06:50;;;;;;;4.18;3.78;;;;;;;;;;5084708;28;20223;-68
2022/09/04 07:09:19;;;;;;;6.60;5.90;;;;;;;;;;5084529;28;20196;-68
2022/09/04 07:12:02;;;;;;;6.63;4.90;;;;;;;;;;5084347;28;20224;-68
2022/09/04 07:14:42;;;;;;;4.10;3.88;;;;;;;;;;5084357;28;20558;-68
2022/09/04 07:17:14;;;;;;;3.90;3.63;;;;;;;;;;5084714;28;20611;-68
2022/09/04 07:19:47;;;;;;;5.55;4.10;;;;;;;;;;5084014;28;20250;-68
2022/09/04 07:22:23;;;;;;;4.28;3.97;;;;;;;;;;5084311;28;20242;-68
2022/09/04 07:24:55;;;;;;;4.50;3.85;;;;;;;;;;5084247;28;20274;-68
2022/09/04 07:27:27;;;;;;;4.18;3.97;;;;;;;;;;5084543;28;20196;-68
2022/09/04 07:29:54;;;;;;;4.30;4.10;;;;;;;;;;5084235;28;20250;-68
2022/09/04 07:32:23;;;;;;;4.53;4.13;;;;;;;;;;5084322;28;20272;-68
2022/09/04 07:34:53;;;;;;;4.43;4.00;;;;;;;;;;5084094;28;20200;-68
2022/09/04 07:37:26;;;;;;;7.10;4.50;;;;;;;;;;5084256;28;20197;-68
2022/09/04 07:39:59;;;;;;;4.63;4.22;;;;;;;;;;5084027;28;20275;-68
2022/09/04 07:42:28;;;;;;;6.15;4.80;;;;;;;;;;5083882;28;20200;-68
2022/09/04 07:45:01;;;;;;;4.45;4.15;;;;;;;;;;5083977;28;20250;-68
2022/09/04 07:47:29;;;;;;;4.78;4.47;;;;;;;;;;5083768;28;20200;-68
2022/09/04 07:49:58;;;;;;;4.18;3.97;;;;;;;;;;5083564;28;20242;-68
2022/09/04 07:52:37;;;;;;;4.55;3.97;;;;;;;;;;5083931;28;20419;-68
2022/09/04 07:55:11;;;;;;;5.25;4.88;;;;;;;;;;5083510;28;20196;-68
2022/09/04 07:57:44;;;;;;;4.18;3.85;;;;;;;;;;5083738;28;20395;-68
2022/09/04 08:00:12;;;;;;;3.97;3.75;;;;;;;;;;5083478;28;20223;-68
2022/09/04 08:02:49;;;;;;;4.05;3.85;;;;;;;;;;5083441;28;20208;-68
2022/09/04 08:05:20;;;;;;;4.65;4.22;;;;;;;;;;5083574;28;20215;-68
2022/09/04 08:08:09;;;;;;;4.32;4.07;;;;;;;;;;5083601;28;20429;-68
2022/09/04 08:10:39;;;;;;;5.10;3.60;;;;;;;;;;5058403;28;20274;-68
2022/09/04 08:13:12;;;;;;;4.35;4.05;;;;;;;;;;5083245;28;20265;-68
2022/09/04 08:15:41;;;;;;;3.75;3.65;;;;;;;;;;5083298;28;20208;-68
2022/09/04 08:18:23;;;;;;;3.35;3.15;;;;;;;;;;5083444;28;20197;-68
2022/09/04 08:20:54;;;;;;;4.10;3.75;;;;;;;;;;5082932;28;20238;-68
2022/09/04 08:23:30;;;;;;;6.97;5.28;;;;;;;;;;5083001;28;20196;-68
2022/09/04 08:26:02;;;;;;;4.45;4.00;;;;;;;;;;5083006;28;20446;-68
2022/09/04 08:28:36;;;;;;;4.57;4.18;;;;;;;;;;5082999;28;20254;-68
2022/09/04 08:31:06;;;;;;;5.07;3.47;;;;;;;;;;5082056;28;20234;-68
2022/09/04 08:33:42;;;;;;;4.35;3.88;;;;;;;;;;5083023;28;20224;-68
2022/09/04 08:36:12;;;;;;;3.58;3.28;;;;;;;;;;5083082;28;20410;-68
2022/09/04 08:38:48;;;;;;;3.38;3.28;;;;;;;;;;5082732;28;20242;-68
2022/09/04 08:41:38;;;;;;;4.03;3.83;;;;;;;;;;5082776;28;20523;-68
2022/09/04 08:44:19;;;;;;;3.45;3.25;;;;;;;;;;5082652;28;20196;-68
2022/09/04 08:47:01;;;;;;;4.75;3.65;;;;;;;;;;5082873;28;20430;-68
2022/09/04 08:49:52;;;;;;;3.60;3.40;;;;;;;;;;5080325;28;20204;-68
2022/09/04 08:52:37;;;;;;;3.15;2.88;;;;;;;;;;5082447;28;20258;-68
2022/09/04 08:55:21;;;;;;;3.60;3.35;;;;;;;;;;5082711;28;20196;-68
2022/09/04 08:58:05;;;;;;;4.20;3.92;;;;;;;;;;5082636;28;20234;-68
2022/09/04 09:00:42;;;;;;;3.70;3.10;;;;;;;;;;5082286;28;20200;-68
2022/09/04 09:03:17;;;;;;;3.10;2.90;;;;;;;;;;5082653;28;20188;-68
2022/09/04 09:06:09;;;;;;;3.28;2.50;;;;;;;;;;5082687;28;20269;-68
2022/09/04 09:08:53;;;;;;;2.28;2.17;;;;;;;;;;5082456;28;20196;-68
2022/09/04 09:11:43;;;;;;;2.05;1.88;;;;;;;;;;5082184;28;20304;-68
2022/09/04 09:14:22;;;;;;;2.25;2.15;;;;;;;;;;5066907;28;20226;-68
2022/09/04 09:16:55;;;;;;;2.45;1.90;;;;;;;;;;5082532;28;20223;-68
2022/09/04 09:19:32;;;;;;;2.00;1.90;;;;;;;;;;5082068;28;20234;-68
2022/09/04 09:22:10;;;;;;;2.67;1.55;;;;;;;;;;5082197;28;20191;-68
2022/09/04 09:24:59;;;;;;;1.65;1.52;;;;;;;;;;5082371;28;20196;-68
2022/09/04 09:27:40;;;;;;;3.03;1.75;;;;;;;;;;5082329;28;20234;-68
2022/09/04 09:30:08;;;;;;;1.88;1.77;;;;;;;;;;5079475;28;20549;-68
2022/09/04 09:32:53;;;;;;;1.40;1.30;;;;;;;;;;5082071;28;20253;-68
2022/09/04 09:35:38;;;;;;;1.00;1.00;;;;;;;;;;5082377;28;20196;-68
2022/09/04 09:38:22;;;;;;;3.90;1.33;;;;;;;;;;5082178;28;20196;-68
2022/09/04 09:41:12;;;;;;;1.52;1.40;;;;;;;;;;5082090;28;20195;-68
2022/09/04 09:43:53;;;;;;;1.50;1.05;;;;;;;;;;5085420;28;20395;-68
2022/09/04 09:46:42;;;;;;;2.40;1.23;;;;;;;;;;5073071;28;20212;-68
2022/09/04 09:49:26;;;;;;;1.40;1.40;;;;;;;;;;5085853;28;20204;-68
2022/09/04 09:52:04;;;;;;;2.47;1.40;;;;;;;;;;5085836;28;20386;-68
2022/09/04 09:54:43;;;;;;;2.55;1.70;;;;;;;;;;5086063;28;20291;-68
2022/09/04 09:57:27;;;;;;;1.80;1.60;;;;;;;;;;5085823;28;20499;-68
2022/09/04 10:00:04;;;;;;;1.48;1.23;;;;;;;;;;5085751;28;20207;-68
2022/09/04 10:02:51;;;;;;;2.92;1.50;;;;;;;;;;5085880;28;20192;-68
2022/09/04 10:05:31;;;;;;;1.33;1.33;;;;;;;;;;5062638;28;20215;-68
2022/09/04 10:08:26;;;;;;;1.17;1.17;;;;;;;;;;5087021;28;20424;-67
2022/09/04 10:11:07;;;;;;;2.03;1.50;;;;;;;;;;5085467;28;20377;-67
2022/09/04 10:13:52;;;;;;;1.70;1.60;;;;;;;;;;5086076;28;20201;-67
2022/09/04 10:16:30;;;;;;;1.33;1.33;;;;;;;;;;5089370;28;20428;-67
2022/09/04 10:19:11;;;;;;;3.13;1.30;;;;;;;;;;5086435;28;20242;-69
2022/09/04 10:21:50;;;;;;;1.20;1.13;;;;;;;;;;5085315;28;20191;-69
2022/09/04 10:24:35;;;;;;;1.95;1.10;;;;;;;;;;5085075;28;20386;-69
2022/09/04 10:27:20;;;;;;;0.98;0.98;;;;;;;;;;5085379;28;20383;-69
2022/09/04 10:30:03;;;;;;;1.40;1.30;;;;;;;;;;5085111;28;20419;-69
2022/09/04 10:32:39;;;;;;;1.27;1.27;;;;;;;;;;5085108;28;20588;-69
2022/09/04 10:35:17;;;;;;;2.50;1.50;;;;;;;;;;5085417;28;20196;-69
2022/09/04 10:37:52;;;;;;;1.00;1.00;;;;;;;;;;5085076;28;20195;-69
2022/09/04 10:40:37;;;;;;;1.10;1.05;;;;;;;;;;5085013;28;20549;-69
2022/09/04 10:43:18;;;;;;;1.10;1.10;;;;;;;;;;5084944;28;20200;-69
2022/09/04 10:45:47;;;;;;;3.25;1.08;;;;;;;;;;5082385;28;20200;-69
2022/09/04 10:48:24;;;;;;;1.52;1.20;;;;;;;;;;5085105;28;20369;-69
2022/09/04 10:50:59;;;;;;;0.88;0.88;;;;;;;;;;5084605;28;20363;-69
2022/09/04 10:53:35;;;;;;;0.90;0.90;;;;;;;;;;5084487;28;20287;-69
2022/09/04 10:56:07;;;;;;;0.90;0.90;;;;;;;;;;5084619;28;20241;-69
2022/09/04 10:58:38;;;;;;;1.00;1.00;;;;;;;;;;5084804;28;20226;-69
2022/09/04 11:01:36;;;;;;;1.20;1.00;;;;;;;;;;5084553;28;20230;-69
2022/09/04 11:04:13;;;;;;;1.83;1.15;;;;;;;;;;5084831;28;20218;-69
2022/09/04 11:06:51;;;;;;;1.95;0.80;;;;;;;;;;5084664;28;20253;-69
2022/09/04 11:09:32;;;;;;;0.95;0.70;;;;;;;;;;5084426;28;20199;-70
2022/09/04 11:12:04;;;;;;;1.00;1.00;;;;;;;;;;5081843;28;20238;-70
2022/09/04 11:14:42;;;;;;;0.80;0.80;;;;;;;;;;5084479;28;20200;-70
2022/09/04 11:17:19;;;;;;;0.90;0.90;;;;;;;;;;5084362;28;20262;-70
2022/09/04 11:20:11;;;;;;;1.45;0.98;;;;;;;;;;5084255;28;20504;-70
2022/09/04 11:22:49;;;;;;;1.35;0.80;;;;;;;;;;5069561;28;20204;-71
2022/09/04 11:25:26;;;;;;;1.60;0.95;;;;;;;;;;5084498;28;20208;-70
2022/09/04 11:28:11;;;;;;;2.63;1.10;;;;;;;;;;5084446;28;20196;-70
2022/09/04 11:30:52;;;;;;;2.22;0.95;;;;;;;;;;5084269;28;20263;-70
2022/09/04 11:33:35;;;;;;;0.82;0.80;;;;;;;;;;5084292;28;20295;-70
2022/09/04 11:36:34;;;;;;;1.38;0.80;;;;;;;;;;5071826;28;20390;-70
2022/09/04 11:39:24;;;;;;;1.15;0.98;;;;;;;;;;5083721;28;20196;-70
2022/09/04 11:42:07;;;;;;;1.73;0.70;;;;;;;;;;5084055;28;20237;-70
2022/09/04 11:44:47;;;;;;;0.85;0.85;;;;;;;;;;5081744;28;20241;-70
2022/09/04 11:47:33;;;;;;;0.80;0.80;;;;;;;;;;5083859;28;20416;-70
2022/09/04 11:50:15;;;;;;;1.90;1.40;;;;;;;;;;5083776;28;20231;-70
2022/09/04 11:53:10;;;;;;;0.60;0.60;;;;;;;;;;5083638;28;20227;-70
2022/09/04 11:55:43;;;;;;;1.95;1.77;;;;;;;;;;5083602;28;20444;-70
2022/09/04 11:58:16;;;;;;;3.00;2.90;;;;;;;;;;5083750;28;20200;-70
2022/09/04 12:00:47;;;;;;;1.45;1.20;;;;;;;;;;5083446;28;20196;-70
2022/09/04 12:03:29;;;;;;;1.35;1.30;;;;;;;;;;5080139;28;20200;-70
2022/09/04 12:06:11;;;;;;;0.98;0.93;;;;;;;;;;5081253;28;20555;-70
2022/09/04 12:09:00;;;;;;;1.55;0.80;;;;;;;;;;5083513;28;20242;-70
2022/09/04 12:11:47;;;;;;;1.90;1.20;;;;;;;;;;5083229;28;20241;-70
2022/09/04 12:14:30;;;;;;;0.88;0.88;;;;;;;;;;5083355;28;20266;-70
2022/09/04 12:17:10;;;;;;;2.17;0.90;;;;;;;;;;5083415;28;20241;-69
2022/09/04 12:19:43;;;;;;;0.85;0.80;;;;;;;;;;5083111;28;20429;-70
2022/09/04 12:22:24;;;;;;;1.10;1.00;;;;;;;;;;5083187;28;20375;-70
2022/09/04 12:25:04;;;;;;;1.13;0.90;;;;;;;;;;5083051;28;20409;-70
2022/09/04 12:27:48;;;;;;;0.65;0.65;;;;;;;;;;5083194;28;20196;-70
2022/09/04 12:30:18;;;;;;;1.02;0.93;;;;;;;;;;5082867;28;20196;-70
2022/09/04 12:33:06;;;;;;;1.10;0.88;;;;;;;;;;5083047;28;20276;-70
2022/09/04 12:35:53;;;;;;;0.60;0.60;;;;;;;;;;5082795;28;20203;-70
2022/09/04 12:38:34;;;;;;;0.90;0.90;;;;;;;;;;5082870;28;20409;-70
2022/09/04 12:41:05;;;;;;;0.80;0.80;;;;;;;;;;5080291;28;20492;-70
2022/09/04 12:43:41;;;;;;;1.13;0.73;;;;;;;;;;5082794;28;20229;-69
2022/09/04 12:46:13;;;;;;;0.90;0.90;;;;;;;;;;5082974;28;20204;-70
2022/09/04 12:48:44;;;;;;;0.75;0.75;;;;;;;;;;5082791;28;20554;-70
2022/09/04 12:51:12;;;;;;;1.75;0.95;;;;;;;;;;5082301;28;20200;-70
2022/09/04 12:53:47;;;;;;;0.60;0.60;;;;;;;;;;5082512;28;20216;-70
2022/09/04 12:56:21;;;;;;;0.77;0.77;;;;;;;;;;5082393;28;20225;-70
2022/09/04 12:58:58;;;;;;;1.00;1.00;;;;;;;;;;5082349;28;20268;-70
2022/09/04 13:01:30;;;;;;;2.10;0.82;;;;;;;;;;5082618;28;20195;-70
2022/09/04 13:04:04;;;;;;;1.33;0.70;;;;;;;;;;5082792;28;20521;-70
2022/09/04 13:06:33;;;;;;;0.70;0.70;;;;;;;;;;5082455;28;20254;-70
2022/09/04 13:09:07;;;;;;;0.70;0.70;;;;;;;;;;5082026;28;20249;-70
2022/09/04 13:11:40;;;;;;;0.60;0.60;;;;;;;;;;5082381;28;20200;-70
2022/09/04 13:14:16;;;;;;;0.63;0.63;;;;;;;;;;5082369;28;20417;-70
2022/09/04 13:16:45;;;;;;;3.13;0.77;;;;;;;;;;5082065;28;20241;-70
2022/09/04 13:19:15;;;;;;;1.15;0.85;;;;;;;;;;5081998;28;20496;-70
2022/09/04 13:21:53;;;;;;;1.70;0.82;;;;;;;;;;5082068;28;20196;-70
2022/09/04 13:24:26;;;;;;;0.90;0.90;;;;;;;;;;5082552;28;20417;-70
2022/09/04 13:27:06;;;;;;;1.10;0.70;;;;;;;;;;5082089;28;20208;-70
2022/09/04 13:29:39;;;;;;;2.25;0.88;;;;;;;;;;5081833;28;20227;-70
2022/09/04 13:32:23;;;;;;;2.05;0.90;;;;;;;;;;5082199;28;20223;-70
2022/09/04 13:34:59;;;;;;;1.23;0.68;;;;;;;;;;5082070;28;20249;-70
2022/09/04 13:37:28;;;;;;;1.00;0.80;;;;;;;;;;5082104;28;20234;-70
2022/09/04 13:40:03;;;;;;;0.70;0.70;;;;;;;;;;5081841;28;20231;-70
2022/09/04 13:42:50;;;;;;;1.10;1.00;;;;;;;;;;5082123;28;20199;-70
2022/09/04 13:45:22;;;;;;;0.75;0.75;;;;;;;;;;5082032;28;20242;-70
2022/09/04 13:47:49;;;;;;;0.70;0.70;;;;;;;;;;5081955;28;20195;-70
2022/09/04 13:50:18;;;;;;;1.80;0.70;;;;;;;;;;5081576;28;20196;-70
2022/09/04 13:52:50;;;;;;;0.85;0.85;;;;;;;;;;5082073;28;20265;-70
2022/09/04 13:55:20;;;;;;;0.73;0.73;;;;;;;;;;5081839;28;20243;-70
2022/09/04 13:57:56;;;;;;;0.75;0.75;;;;;;;;;;5081744;28;20238;-70
2022/09/04 14:00:23;;;;;;;0.82;0.80;;;;;;;;;;5081376;28;20496;-70
2022/09/04 14:02:56;;;;;;;0.80;0.80;;;;;;;;;;5081332;28;20286;-70
2022/09/04 14:05:24;;;;;;;1.60;0.77;;;;;;;;;;5081321;28;20223;-70
2022/09/04 14:07:56;;;;;;;0.50;0.50;;;;;;;;;;5081292;28;20196;-70
2022/09/04 14:10:30;;;;;;;0.80;0.80;;;;;;;;;;5081143;28;20420;-70
2022/09/04 14:13:12;;;;;;;1.15;0.70;;;;;;;;;;5081035;28;20216;-70
2022/09/04 14:15:43;;;;;;;1.02;1.02;;;;;;;;;;5081097;28;20196;-70
2022/09/04 14:18:15;;;;;;;3.63;0.73;;;;;;;;;;5081445;28;20422;-70
2022/09/04 14:20:48;;;;;;;0.80;0.80;;;;;;;;;;5081228;28;20196;-70
2022/09/04 14:23:22;;;;;;;0.75;0.75;;;;;;;;;;5081742;28;20196;-70
2022/09/04 14:25:50;;;;;;;0.80;0.70;;;;;;;;;;5081411;28;20248;-70
2022/09/04 14:28:19;;;;;;;0.68;0.68;;;;;;;;;;5081806;28;20423;-70
2022/09/04 14:30:52;;;;;;;0.70;0.70;;;;;;;;;;5084713;28;20227;-70
2022/09/04 14:33:23;;;;;;;0.88;0.70;;;;;;;;;;5084996;28;20261;-70
2022/09/04 14:35:58;;;;;;;0.88;0.70;;;;;;;;;;5085212;28;20196;-70
2022/09/04 14:38:34;;;;;;;0.70;0.70;;;;;;;;;;5084983;28;20207;-70
2022/09/04 14:41:07;;;;;;;0.70;0.70;;;;;;;;;;5085146;28;20195;-70
2022/09/04 14:43:43;;;;;;;1.05;0.80;;;;;;;;;;5085150;28;20212;-70
2022/09/04 14:46:14;;;;;;;0.70;0.70;;;;;;;;;;5085010;28;20237;-70
2022/09/04 14:48:43;;;;;;;0.77;0.75;;;;;;;;;;5084831;28;20196;-70
2022/09/04 14:51:13;;;;;;;1.05;0.60;;;;;;;;;;5084856;28;20206;-70
2022/09/04 14:53:45;;;;;;;0.60;0.60;;;;;;;;;;5084968;28;20220;-70
2022/09/04 14:56:19;;;;;;;0.70;0.70;;;;;;;;;;5084921;28;20234;-69
2022/09/04 14:58:48;;;;;;;0.80;0.80;;;;;;;;;;5084757;28;20196;-70
2022/09/04 15:01:17;;;;;;;0.70;0.70;;;;;;;;;;5084626;28;20541;-69
2022/09/04 15:03:45;;;;;;;1.52;0.77;;;;;;;;;;5084962;28;20546;-69
2022/09/04 15:06:14;;;;;;;0.45;0.45;;;;;;;;;;5084787;28;20651;-69
2022/09/04 15:08:42;;;;;;;0.63;0.63;;;;;;;;;;5084585;28;20196;-69
2022/09/04 15:11:09;;;;;;;0.95;0.70;;;;;;;;;;5084392;28;20200;-70
2022/09/04 15:13:51;;;;;;;0.85;0.65;;;;;;;;;;5084483;28;20211;-70
2022/09/04 15:16:20;;;;;;;0.50;0.50;;;;;;;;;;5084674;28;20422;-69
2022/09/04 15:18:54;;;;;;;0.57;0.57;;;;;;;;;;5084495;28;20196;-69
2022/09/04 15:21:25;;;;;;;0.75;0.75;;;;;;;;;;5084422;28;20203;-69
2022/09/04 15:23:54;;;;;;;0.82;0.70;;;;;;;;;;5084457;28;20237;-69
2022/09/04 15:26:24;;;;;;;0.60;0.60;;;;;;;;;;5084072;28;20204;-69
2022/09/04 15:28:54;;;;;;;1.65;0.80;;;;;;;;;;5084127;28;20203;-70
2022/09/04 15:31:27;;;;;;;2.47;1.00;;;;;;;;;;5084291;28;20196;-69
2022/09/04 15:33:59;;;;;;;0.90;0.90;;;;;;;;;;5084128;28;20261;-69
2022/09/04 15:36:26;;;;;;;0.60;0.60;;;;;;;;;;5084562;28;20241;-69